• Join FlightAware (Why Join?)
  • Login
  • US Flag 
07:24AM EDT


 

Airport Tracker/Info


-or-


 

Live Flight TrackerFlight Track Log ✈ LOT393 ✈ 24-Apr-2013 ✈ EPWA / WAW - EDDH / HAM

Flight Track Log - Related Links

Times and Time Zones

All times are in EDT time to prevent confusion due to time zone crossing. See the LOT393 flight status page for this flight to view local times or setup timezone preferences in your user account.

Time Position Orientation Groundspeed Altitude Reporting Facility
EDT Latitude Longitude Course Direction KTS MPH feet Rate Location/Type
11:43AM 52.2911 20.2780 287° West  Level Estimated
11:44AM 52.3157 20.1398 286° West  Level Estimated
11:45AM 52.3401 20.0013 286° West  Level Estimated
11:46AM 52.3644 19.8627 286° West  Level Estimated
11:47AM 52.3885 19.7240 286° West  Level Estimated
11:48AM 52.4125 19.5851 286° West  Level Estimated
11:49AM 52.4362 19.4461 286° West  Level Estimated
11:50AM 52.4599 19.3069 286° West  Level Estimated
11:51AM 52.4833 19.1675 286° West  Level Estimated
11:52AM 52.5066 19.0280 285° West  Level Estimated
11:53AM 52.5297 18.8884 285° West  Level Estimated
11:54AM 52.5527 18.7486 285° West  Level Estimated
11:55AM 52.5755 18.6087 285° West  Level Estimated
11:56AM 52.5981 18.4686 285° West  Level Estimated
11:57AM 52.6206 18.3284 285° West  Level Estimated
11:58AM 52.6429 18.1880 285° West  Level Estimated
11:59AM 52.6650 18.0475 285° West  Level Estimated
12:00PM 52.6870 17.9069 285° West  Level Estimated
12:01PM 52.7088 17.7661 284° West  Level Estimated
12:02PM 52.7304 17.6252 284° West  Level Estimated
12:03PM 52.7519 17.4841 284° West  Level Estimated
12:04PM 52.7732 17.3429 284° West  Level Estimated
12:05PM 52.7943 17.2016 284° West  Level Estimated
12:06PM 52.8153 17.0601 284° West  Level Estimated
12:07PM 52.8361 16.9185 284° West  Level Estimated
12:08PM 52.8567 16.7767 284° West  Level Estimated
12:09PM 52.8772 16.6348 283° West  Level Estimated
12:10PM 52.8975 16.4928 283° West  Level Estimated
12:11PM 52.9176 16.3507 283° West  Level Estimated
12:12PM 52.9376 16.2084 283° West  Level Estimated
12:13PM 52.9573 16.0660 283° West  Level Estimated
12:14PM 52.9770 15.9235 283° West  Level Estimated
12:15PM 52.9964 15.7808 283° West  Level Estimated
12:16PM 53.0157 15.6380 283° West  Level Estimated
12:17PM 53.0348 15.4951 283° West  Level Estimated
12:18PM 53.0537 15.3520 282° West  Level Estimated
12:19PM 53.0724 15.2088 282° West  Level Estimated
12:20PM 53.0910 15.0655 282° West  Level Estimated
12:21PM 53.1094 14.9221 282° West  Level Estimated
12:22PM 53.1277 14.7786 282° West  Level Estimated
12:23PM 53.1457 14.6349 282° West  Level Estimated
12:24PM 53.1636 14.4911 282° West  Level Estimated
12:25PM 53.1813 14.3472 282° West  Level Estimated
12:26PM 53.1989 14.2031 282° West  Level Estimated
12:27PM 53.2163 14.0590 281° West  Level Estimated
12:28PM 53.2335 13.9148 281° West  Level Estimated
12:29PM 53.2505 13.7704 281° West  Level Estimated
12:30PM 53.2673 13.6259 281° West  Level Estimated
12:31PM 53.2840 13.4813 281° West  Level Estimated
12:32PM 53.3005 13.3366 281° West  Level Estimated
12:33PM 53.3168 13.1917 281° West  Level Estimated
12:34PM 53.3330 13.0468 281° West  Level Estimated
12:35PM 53.3489 12.9017 281° West  Level Estimated
12:36PM 53.3647 12.7566 280° West  Level Estimated
12:37PM 53.3803 12.6113 280° West  Level Estimated
12:38PM 53.3958 12.4660 280° West  Level Estimated
12:39PM 53.4111 12.3205 280° West  Level Estimated
12:40PM 53.4262 12.1749 280° West  Level Estimated
12:41PM 53.4411 12.0292 280° West  Level Estimated
12:42PM 53.4558 11.8834 280° West  Level Estimated
12:43PM 53.4704 11.7376 280° West  Level Estimated
12:44PM 53.4847 11.5916 279° West  Level Estimated
12:45PM 53.4989 11.4455 279° West  Level Estimated
12:46PM 53.5130 11.2993 279° West  Level Estimated
12:47PM 53.5268 11.1531 279° West  Level Estimated
12:48PM 53.5405 11.0067 279° West  Level Estimated
12:49PM 53.5540 10.8602 279° West  Level Estimated
12:50PM 53.5673 10.7137 279° West  Level Estimated
12:51PM 53.5804 10.5670 279° West  Level Estimated
12:52PM 53.5933 10.4203 279° West  Level Estimated
12:53PM 53.6061 10.2735 278° West  Level Estimated
12:54PM 53.6187 10.1265 278° West  Level Estimated
12:55PM 53.6304 9.9882 278° West  Level Estimated
12:56PM 53.6304 9.9882 230° Southwest  Level Estimated
12:57PM 53.6304 9.9882 230° Southwest  Level Estimated
12:58PM 53.6304 9.9882 230° Southwest  Level Estimated
12:59PM 53.6304 9.9882 230° Southwest  Level Estimated
01:00PM 53.6304 9.9882 230° Southwest  Level Estimated
01:01PM 53.6304 9.9882 230° Southwest  Level Estimated
01:02PM 53.6304 9.9882 230° Southwest  Level Estimated
01:03PM 53.6304 9.9882 230° Southwest  Level Estimated
01:04PM 53.6304 9.9882 230° Southwest  Level Estimated
01:05PM 53.6304 9.9882 230° Southwest  Level Estimated
01:06PM 53.6304 9.9882 230° Southwest  Level Estimated
01:07PM 53.6304 9.9882 230° Southwest  Level Estimated
01:08PM 53.6304 9.9882 230° Southwest  Level Estimated
01:09PM 53.6304 9.9882 230° Southwest  Level Estimated
01:10PM 53.6304 9.9882 230° Southwest  Level Estimated